Airfield :







YOU CAN JOIN US ON...

 
LOGIN :

Register | Disclaimer

   EN    FR    IT 

 









Legend :    VFR   Marginal VFR   IFR   Intensive IFR   Very Intensive IFR
Visi :
Ceiling :
>= 8 km
>= 3000ft
5 to 8 km
1000 to 3000 ft
1500m to 5 km
500 to 1000 ft
800 to 1500m
200 to 500 ft
< 800m
< 200 ft
Symbols :   Thunderstorms  Fog  Heavy snow  Heavy precipitations  Wind > 20 kt







- Airport Elevation : 90 ft
- IATA code : YHU


CYHU - Montréal Saint-Hubert

CURRENT METAR :
  • 222300Z AUTO 26016KT 9SM CLR 24/13 A2981 RMK SLP094 DENSITY ALT 1200FT

EXPIRED METARs :
  • 222200Z AUTO 28015G20KT 9SM FEW060 BKN091 25/12 A2980 RMK SLP092 DENSITY ALT 1300FT
  • 222100Z AUTO 26013G21KT 9SM FEW065 26/11 A2979 RMK SLP088 DENSITY ALT 1500FT

TAF TAF CYHU
Valid from the 23 at 00:00 until the 24 at 00:00 UTC


222338Z 2300/2324 27010G20KT P6SM SCT050
FM230300 33013KT P6SM SCT070
FM231400 28015KT P6SM SCT060 RMK FCST BASED ON AUTO OBS. NXT FCST BY 230600Z
No reported NOTAMs for that airfield.



MET'MAP, your aeronautical weather chart ! - Copyright ORBIFLY December 2007 - Disclaimer

ORBIFLY MET'MAP TEAM :

Programming & Development : Alexandra Zaïnal
Concept & Development : Baudouin d'Aumeries
Co-Development & Prog : Marc-Olivier Méhu
Technical & hardware support : Manuel Goepfert

Contact : metmap@orbifly.com




SOURCES & CREDITS :

   NOAA